createdAt,value
2022-11-15T00:00:57.187Z,17.23
2022-11-15T00:03:28.951Z,18.67
2022-11-15T00:05:56.010Z,20.15
2022-11-15T00:08:22.658Z,20.25
2022-11-15T00:10:57.345Z,18.00
2022-11-15T00:13:24.109Z,18.60
2022-11-15T00:15:50.845Z,18.42
2022-11-15T00:18:18.185Z,19.23
2022-11-15T00:20:45.322Z,17.40
2022-11-15T00:23:12.068Z,19.10
2022-11-15T00:25:38.740Z,17.60
2022-11-15T00:28:05.683Z,19.42
2022-11-15T00:30:32.355Z,19.17
2022-11-15T00:33:05.696Z,19.45
2022-11-15T00:35:34.565Z,18.08
2022-11-15T00:38:02.023Z,19.02
2022-11-15T00:40:29.302Z,18.50
2022-11-15T00:42:56.301Z,18.73
2022-11-15T00:45:23.228Z,18.48
2022-11-15T00:47:49.863Z,18.73
2022-11-15T00:50:16.829Z,20.08
2022-11-15T00:52:44.044Z,18.48
2022-11-15T00:55:18.171Z,18.67
2022-11-15T00:57:45.470Z,17.90
2022-11-15T01:00:13.239Z,17.45
2022-11-15T01:02:39.879Z,17.65
2022-11-15T01:05:07.293Z,19.30
2022-11-15T01:07:34.140Z,18.08
2022-11-15T01:10:00.890Z,17.45
2022-11-15T01:12:28.027Z,18.65
2022-11-15T01:14:55.374Z,18.63
2022-11-15T01:17:22.108Z,17.60
2022-11-15T01:19:48.724Z,17.23
2022-11-15T01:22:15.441Z,19.35
2022-11-15T01:24:42.134Z,18.60
2022-11-15T01:27:09.259Z,18.80
2022-11-15T01:29:35.961Z,18.48
2022-11-15T01:32:02.642Z,17.20
2022-11-15T01:34:29.294Z,16.88
2022-11-15T01:36:56.047Z,16.45
2022-11-15T01:39:22.695Z,17.30
2022-11-15T01:41:49.335Z,16.42
2022-11-15T01:44:34.544Z,16.02
2022-11-15T01:49:34.339Z,16.27
2022-11-15T01:52:04.382Z,16.17
2022-11-15T01:54:31.977Z,17.10
2022-11-15T01:57:09.681Z,16.73
2022-11-15T01:59:43.492Z,16.35
2022-11-15T02:02:10.220Z,17.65
2022-11-15T02:04:42.073Z,16.05
2022-11-15T02:07:11.795Z,16.17
2022-11-15T02:09:39.373Z,16.55
2022-11-15T02:12:08.303Z,16.38
2022-11-15T02:14:36.961Z,16.90
2022-11-15T02:17:12.126Z,17.30
2022-11-15T02:20:29.339Z,17.45
2022-11-15T02:23:23.862Z,17.08
2022-11-15T02:26:02.468Z,17.02
2022-11-15T02:29:09.853Z,16.42
2022-11-15T02:31:48.684Z,15.10
2022-11-15T02:34:23.621Z,15.88
2022-11-15T02:37:05.305Z,14.60
2022-11-15T02:39:53.050Z,16.00
2022-11-15T02:42:44.336Z,15.23
2022-11-15T02:45:18.827Z,15.52
2022-11-15T02:47:49.007Z,15.35
2022-11-15T02:50:19.738Z,15.40
2022-11-15T02:52:47.885Z,15.32
2022-11-15T02:55:34.649Z,15.82
2022-11-15T02:58:18.913Z,15.20
2022-11-15T03:01:08.312Z,15.27
2022-11-15T03:03:49.857Z,15.65
2022-11-15T03:06:30.186Z,15.63
2022-11-15T03:09:26.434Z,15.07
2022-11-15T03:12:08.115Z,16.25
2022-11-15T03:14:40.819Z,14.80
2022-11-15T03:17:30.723Z,14.80
2022-11-15T03:20:01.083Z,15.13
2022-11-15T03:22:31.680Z,14.88
2022-11-15T03:25:03.035Z,14.50
2022-11-15T03:27:36.798Z,15.63
2022-11-15T03:30:07.422Z,14.52
2022-11-15T03:32:56.155Z,13.95
2022-11-15T03:35:28.375Z,14.35
2022-11-15T03:38:18.070Z,15.07
2022-11-15T03:40:52.263Z,14.02
2022-11-15T03:43:41.862Z,15.50
2022-11-15T03:46:25.547Z,14.60
2022-11-15T03:48:58.690Z,14.35
2022-11-15T03:51:25.368Z,13.85
2022-11-15T03:53:52.647Z,14.80
2022-11-15T03:56:19.318Z,15.00
2022-11-15T03:58:45.910Z,13.77
2022-11-15T04:01:12.598Z,14.15
2022-11-15T04:03:39.254Z,13.13
2022-11-15T04:06:06.196Z,13.88
2022-11-15T04:08:32.797Z,13.98
2022-11-15T04:11:01.181Z,14.18
2022-11-15T04:13:29.073Z,13.60
2022-11-15T04:15:55.886Z,13.65
2022-11-15T04:18:22.991Z,12.50
2022-11-15T04:21:08.015Z,13.70
2022-11-15T04:24:06.789Z,13.52
2022-11-15T04:26:33.762Z,13.40
2022-11-15T04:29:38.726Z,13.18
2022-11-15T04:32:07.501Z,9.30
2022-11-15T04:34:34.238Z,13.40
2022-11-15T04:37:13.156Z,13.00
2022-11-15T04:39:44.153Z,12.88
2022-11-15T04:42:11.273Z,13.98
2022-11-15T04:44:38.297Z,14.15
2022-11-15T04:47:05.491Z,13.48
2022-11-15T04:49:32.182Z,13.40
2022-11-15T04:51:58.870Z,13.15
2022-11-15T04:54:25.532Z,13.00
2022-11-15T04:56:52.226Z,13.75
2022-11-15T04:59:18.866Z,14.10
2022-11-15T05:01:45.585Z,13.77
2022-11-15T05:04:21.106Z,14.05
2022-11-15T05:06:50.155Z,13.35
2022-11-15T05:09:18.189Z,14.48
2022-11-15T05:11:45.055Z,14.13
2022-11-15T05:14:11.785Z,13.07
2022-11-15T05:16:38.733Z,14.63
2022-11-15T05:19:06.000Z,14.98
2022-11-15T05:21:33.590Z,14.57
2022-11-15T05:24:00.769Z,12.45
2022-11-15T05:26:27.844Z,13.23
2022-11-15T05:28:56.473Z,13.00
2022-11-15T05:31:23.847Z,14.00
2022-11-15T05:33:52.740Z,13.38
2022-11-15T05:36:37.150Z,12.95
2022-11-15T05:39:05.956Z,13.63
2022-11-15T05:41:40.438Z,13.00
2022-11-15T05:44:10.191Z,13.35
2022-11-15T05:46:40.632Z,12.55
2022-11-15T05:49:10.728Z,13.70
2022-11-15T05:51:37.477Z,13.18
2022-11-15T05:54:04.421Z,12.07
2022-11-15T05:56:31.300Z,12.73
2022-11-15T05:58:59.940Z,12.02
2022-11-15T06:01:28.081Z,12.23
2022-11-15T06:03:54.802Z,11.30
2022-11-15T06:06:21.548Z,12.80
2022-11-15T06:08:48.956Z,12.77
2022-11-15T06:11:15.879Z,11.45
2022-11-15T06:13:42.645Z,11.05
2022-11-15T06:16:09.236Z,11.18
2022-11-15T06:18:36.407Z,10.85
2022-11-15T06:21:03.308Z,11.95
2022-11-15T06:23:34.200Z,11.63
2022-11-15T06:26:02.374Z,11.13
2022-11-15T06:28:30.750Z,11.30
2022-11-15T06:30:58.083Z,11.95
2022-11-15T06:33:24.745Z,10.95
2022-11-15T06:35:51.408Z,12.00
2022-11-15T06:38:18.062Z,13.23
2022-11-15T06:40:44.772Z,13.05
2022-11-15T06:43:11.459Z,12.65
2022-11-15T06:45:38.112Z,12.52
2022-11-15T06:48:05.107Z,11.70
2022-11-15T06:50:31.738Z,11.65
2022-11-15T06:53:02.930Z,12.60
2022-11-15T06:55:29.531Z,13.23
2022-11-15T06:57:56.174Z,12.45
2022-11-15T07:00:23.614Z,12.73
2022-11-15T07:02:50.485Z,12.85
2022-11-15T07:05:17.312Z,12.65
2022-11-15T07:07:44.211Z,13.88
2022-11-15T07:10:11.140Z,13.52
2022-11-15T07:12:37.791Z,14.02
2022-11-15T07:15:04.799Z,13.27
2022-11-15T07:17:31.442Z,13.48
2022-11-15T07:19:58.190Z,13.95
2022-11-15T07:22:24.820Z,12.13
2022-11-15T07:24:51.424Z,14.98
2022-11-15T07:27:18.401Z,14.65
2022-11-15T07:29:45.255Z,15.57
2022-11-15T07:32:11.910Z,15.68
2022-11-15T07:34:38.864Z,15.20
2022-11-15T07:37:05.466Z,17.52
2022-11-15T07:39:32.088Z,20.60
2022-11-15T07:42:17.504Z,19.20
2022-11-15T07:44:44.134Z,17.40
2022-11-15T07:47:10.760Z,18.00
2022-11-15T07:49:37.409Z,17.27
2022-11-15T07:52:04.103Z,19.35
2022-11-15T07:54:30.693Z,24.00
2022-11-15T07:56:59.207Z,24.98
2022-11-15T07:59:27.793Z,21.65
2022-11-15T08:01:54.498Z,20.98
2022-11-15T08:04:21.232Z,23.90
2022-11-15T08:06:47.885Z,24.77
2022-11-15T08:09:14.531Z,24.98
2022-11-15T08:11:41.155Z,25.58
2022-11-15T08:14:07.823Z,24.30
2022-11-15T08:16:34.453Z,22.73
2022-11-15T08:19:01.259Z,21.35
2022-11-15T08:21:27.952Z,22.20
2022-11-15T08:23:54.703Z,21.60
2022-11-15T08:26:21.415Z,20.98
2022-11-15T08:28:48.142Z,20.60
2022-11-15T08:31:17.826Z,19.25
2022-11-15T08:33:45.475Z,18.38
2022-11-15T08:36:17.181Z,18.25
2022-11-15T08:38:44.263Z,18.33
2022-11-15T08:41:17.121Z,17.65
2022-11-15T08:43:43.762Z,17.65
2022-11-15T08:46:14.230Z,17.38
2022-11-15T08:48:40.835Z,18.45
2022-11-15T08:51:07.780Z,18.35
2022-11-15T08:53:35.339Z,18.05
2022-11-15T08:56:02.749Z,17.38
2022-11-15T08:58:29.916Z,17.77
2022-11-15T09:00:56.896Z,17.38
2022-11-15T09:03:23.666Z,17.48
2022-11-15T09:05:54.802Z,19.00
2022-11-15T09:08:49.118Z,21.88
2022-11-15T09:11:09.705Z,22.20
2022-11-15T09:13:38.092Z,21.75
2022-11-15T09:16:05.572Z,22.15
2022-11-15T09:18:33.231Z,21.58
2022-11-15T09:21:01.331Z,22.40
2022-11-15T09:23:28.005Z,24.92
2022-11-15T09:26:03.979Z,20.85
2022-11-15T09:28:31.538Z,22.15
2022-11-15T09:31:03.307Z,22.08
2022-11-15T09:33:30.563Z,20.70
2022-11-15T09:36:09.207Z,19.88
2022-11-15T09:38:36.756Z,20.33
2022-11-15T09:41:15.245Z,20.35
2022-11-15T09:44:07.674Z,19.25
2022-11-15T09:46:56.343Z,21.00
2022-11-15T09:49:23.834Z,20.70
2022-11-15T09:51:54.105Z,22.50
2022-11-15T09:54:55.754Z,20.10
2022-11-15T09:57:31.531Z,20.38
2022-11-15T10:00:30.755Z,20.30
2022-11-15T10:03:10.763Z,19.35
2022-11-15T10:05:46.547Z,17.58
2022-11-15T10:08:31.900Z,17.63
2022-11-15T10:11:35.641Z,17.65
2022-11-15T10:13:51.283Z,19.02
2022-11-15T10:16:51.072Z,18.38
2022-11-15T10:19:25.205Z,17.98
2022-11-15T10:22:07.074Z,18.83
2022-11-15T10:24:39.530Z,19.17
2022-11-15T10:27:13.130Z,18.02
2022-11-15T10:29:45.505Z,17.77
2022-11-15T10:32:14.131Z,17.58
2022-11-15T10:34:40.811Z,17.98
2022-11-15T10:37:07.536Z,18.35
2022-11-15T10:39:34.853Z,16.77
2022-11-15T10:42:28.642Z,18.83
2022-11-15T10:44:55.977Z,18.75
2022-11-15T10:47:37.642Z,18.00
2022-11-15T10:50:26.954Z,18.30
2022-11-15T10:52:54.227Z,19.27
2022-11-15T10:55:27.816Z,18.45
2022-11-15T10:58:03.021Z,17.40
2022-11-15T11:00:42.795Z,16.20
2022-11-15T11:03:30.287Z,16.08
2022-11-15T11:06:15.578Z,15.73
2022-11-15T11:08:58.791Z,15.70
2022-11-15T11:11:26.580Z,15.50
2022-11-15T11:13:53.821Z,15.43
2022-11-15T11:16:23.485Z,16.55
2022-11-15T11:19:17.815Z,14.15
2022-11-15T11:22:11.481Z,14.80
2022-11-15T11:24:48.795Z,14.68
2022-11-15T11:27:38.703Z,15.07
2022-11-15T11:30:09.670Z,14.45
2022-11-15T11:32:45.285Z,13.10
2022-11-15T11:35:23.921Z,13.93
2022-11-15T11:38:02.107Z,14.20
2022-11-15T11:41:00.126Z,12.55
2022-11-15T11:43:38.048Z,13.68
2022-11-15T11:46:18.664Z,13.10
2022-11-15T11:48:50.007Z,12.82
2022-11-15T11:51:22.679Z,13.75
2022-11-15T11:53:56.442Z,14.90
2022-11-15T11:56:32.759Z,14.85
2022-11-15T11:59:08.678Z,15.40
2022-11-15T12:01:42.264Z,15.30
2022-11-15T12:04:35.674Z,16.25
2022-11-15T12:07:10.230Z,17.35
2022-11-15T12:09:42.941Z,16.80
2022-11-15T12:12:51.558Z,19.20
2022-11-15T12:15:23.452Z,19.95
2022-11-15T12:17:50.827Z,19.42
2022-11-15T12:20:23.711Z,15.20
2022-11-15T12:23:26.426Z,13.98
2022-11-15T12:26:08.778Z,15.55
2022-11-15T12:29:06.884Z,18.90
2022-11-15T12:31:44.856Z,21.02
2022-11-15T12:34:23.691Z,19.85
2022-11-15T12:36:52.246Z,21.17
2022-11-15T12:39:19.736Z,21.67
2022-11-15T12:42:06.298Z,24.45
2022-11-15T12:44:32.892Z,25.33
2022-11-15T12:46:59.487Z,27.33
2022-11-15T12:49:29.141Z,28.75
2022-11-15T12:51:58.725Z,32.17
2022-11-15T12:54:25.396Z,35.05
2022-11-15T12:57:04.386Z,35.30
2022-11-15T13:00:05.336Z,34.13
2022-11-15T13:02:44.673Z,33.78
2022-11-15T13:05:17.360Z,35.45
2022-11-15T13:07:43.944Z,34.13
2022-11-15T13:10:13.457Z,32.75
2022-11-15T13:12:46.198Z,33.33
2022-11-15T13:15:12.800Z,33.35
2022-11-15T13:17:49.543Z,33.88
2022-11-15T13:20:16.191Z,33.83
2022-11-15T13:23:03.100Z,35.92
2022-11-15T13:25:38.500Z,35.03
2022-11-15T13:28:10.997Z,33.80
2022-11-15T13:30:38.732Z,33.13
2022-11-15T13:33:20.846Z,33.75
2022-11-15T13:35:50.332Z,33.75
2022-11-15T13:38:29.448Z,33.83
2022-11-15T13:40:57.753Z,34.13
2022-11-15T13:43:25.102Z,34.13
2022-11-15T13:46:19.576Z,34.15
2022-11-15T13:48:48.148Z,35.08
2022-11-15T13:51:23.820Z,35.80
2022-11-15T13:53:56.354Z,34.30
2022-11-15T13:56:23.695Z,33.70
2022-11-15T13:58:50.608Z,35.22
2022-11-15T14:01:21.745Z,36.67
2022-11-15T14:03:58.723Z,35.20
2022-11-15T14:06:28.388Z,34.63
2022-11-15T14:09:05.206Z,34.55
2022-11-15T14:11:31.999Z,35.40
2022-11-15T14:14:12.877Z,34.85
2022-11-15T14:16:48.621Z,39.35
2022-11-15T14:19:21.183Z,35.22
2022-11-15T14:22:12.716Z,37.20
2022-11-15T14:24:40.119Z,35.22
2022-11-15T14:27:22.207Z,36.65
2022-11-15T14:29:49.403Z,34.58
2022-11-15T14:32:25.183Z,34.38
2022-11-15T14:34:58.083Z,37.00
2022-11-15T14:37:34.046Z,37.05
2022-11-15T14:40:00.870Z,37.22
2022-11-15T14:42:27.534Z,37.90
2022-11-15T14:44:54.314Z,37.60
2022-11-15T14:47:21.122Z,35.75
2022-11-15T14:49:48.134Z,36.05
2022-11-15T14:52:31.612Z,36.70
2022-11-15T14:55:00.839Z,36.07
2022-11-15T14:57:27.500Z,36.33
2022-11-15T14:59:54.439Z,36.22
2022-11-15T15:02:27.856Z,35.53
2022-11-15T15:04:54.732Z,35.35
2022-11-15T15:07:21.906Z,35.00
2022-11-15T15:09:48.750Z,33.58
2022-11-15T15:12:23.614Z,34.28
2022-11-15T15:17:18.608Z,32.75
2022-11-15T15:19:45.289Z,32.08
2022-11-15T15:22:20.783Z,33.08
2022-11-15T15:24:47.434Z,33.78
2022-11-15T15:27:14.850Z,32.28
2022-11-15T15:33:32.324Z,30.95
2022-11-15T15:35:58.977Z,33.22
2022-11-15T15:38:26.046Z,32.20
2022-11-15T15:40:52.704Z,30.55
2022-11-15T15:43:19.385Z,31.08
2022-11-15T15:45:46.073Z,31.17
2022-11-15T15:48:15.328Z,30.27
2022-11-15T15:50:44.026Z,30.77
2022-11-15T15:53:12.114Z,28.02
2022-11-15T15:55:39.375Z,29.30
2022-11-15T15:58:06.123Z,29.60
2022-11-15T16:00:35.583Z,30.77
2022-11-15T16:03:02.526Z,29.90
2022-11-15T16:05:29.207Z,31.52
2022-11-15T16:07:55.894Z,30.30
2022-11-15T16:10:30.863Z,31.70
2022-11-15T16:12:58.972Z,29.90
2022-11-15T16:15:27.983Z,29.50
2022-11-15T16:17:57.097Z,29.77
2022-11-15T16:20:27.680Z,30.42
2022-11-15T16:22:54.315Z,30.15
2022-11-15T16:25:20.998Z,29.70
2022-11-15T16:27:47.780Z,29.98
2022-11-15T16:30:19.827Z,30.88
2022-11-15T16:32:47.076Z,29.17
2022-11-15T16:35:15.846Z,30.02
2022-11-15T16:37:44.975Z,30.02
2022-11-15T16:40:33.329Z,29.92
2022-11-15T16:43:02.434Z,30.95
2022-11-15T16:45:29.590Z,29.02
2022-11-15T16:47:56.958Z,30.70
2022-11-15T16:50:29.416Z,28.63
2022-11-15T16:52:58.114Z,29.75
2022-11-15T16:55:28.071Z,30.77
2022-11-15T16:57:55.812Z,26.90
2022-11-15T17:00:22.416Z,28.83
2022-11-15T17:02:50.571Z,29.08
2022-11-15T17:05:20.366Z,29.42
2022-11-15T17:07:50.552Z,28.20
2022-11-15T17:10:17.297Z,28.35
2022-11-15T17:12:44.235Z,25.67
2022-11-15T17:15:13.187Z,28.67
2022-11-15T17:17:40.873Z,29.38
2022-11-15T17:20:15.425Z,28.00
2022-11-15T17:22:42.424Z,29.80
2022-11-15T17:25:09.577Z,27.73
2022-11-15T17:27:36.438Z,27.58
2022-11-15T17:30:03.568Z,26.73
2022-11-15T17:32:30.168Z,27.42
2022-11-15T17:34:56.809Z,25.52
2022-11-15T17:37:23.447Z,25.63
2022-11-15T17:39:50.142Z,25.42
2022-11-15T17:42:16.785Z,25.75
2022-11-15T17:44:43.439Z,26.83
2022-11-15T17:47:10.057Z,29.20
2022-11-15T17:49:39.509Z,26.80
2022-11-15T17:52:06.862Z,27.25
2022-11-15T17:54:33.924Z,29.13
2022-11-15T17:57:00.650Z,29.42
2022-11-15T17:59:27.277Z,26.55
2022-11-15T18:01:56.811Z,28.63
2022-11-15T18:04:28.300Z,27.33
2022-11-15T18:06:56.581Z,28.75
2022-11-15T18:09:23.380Z,28.95
2022-11-15T18:11:51.748Z,27.75
2022-11-15T18:14:19.382Z,30.10
2022-11-15T18:16:46.315Z,29.45
2022-11-15T18:19:13.848Z,30.02
2022-11-15T18:21:56.452Z,29.23
2022-11-15T18:24:29.296Z,26.90
2022-11-15T18:26:56.793Z,29.63
2022-11-15T18:29:24.760Z,29.00
2022-11-15T18:31:55.543Z,31.05
2022-11-15T18:34:24.233Z,30.55
2022-11-15T18:36:52.904Z,30.60
2022-11-15T18:39:20.156Z,30.80
2022-11-15T18:41:47.777Z,28.92
2022-11-15T18:44:15.068Z,31.23
2022-11-15T18:46:42.134Z,31.17
2022-11-15T18:49:10.114Z,28.40
2022-11-15T18:51:43.391Z,30.02
2022-11-15T18:54:12.090Z,26.27
2022-11-15T18:56:39.491Z,31.13
2022-11-15T18:59:06.843Z,31.35
2022-11-15T19:01:35.657Z,30.73
2022-11-15T19:04:07.992Z,29.63
2022-11-15T19:06:39.022Z,30.38
2022-11-15T19:09:06.364Z,29.52
2022-11-15T19:11:35.951Z,29.33
2022-11-15T19:14:05.777Z,30.00
2022-11-15T19:16:36.515Z,28.63
2022-11-15T19:19:06.436Z,29.33
2022-11-15T19:21:33.670Z,26.45
2022-11-15T19:24:01.490Z,27.65
2022-11-15T19:26:29.368Z,28.02
2022-11-15T19:28:58.277Z,29.02
2022-11-15T19:31:26.514Z,28.42
2022-11-15T19:33:53.950Z,28.25
2022-11-15T19:36:23.826Z,29.38
2022-11-15T19:38:50.663Z,25.95
2022-11-15T19:41:19.569Z,27.83
2022-11-15T19:43:50.974Z,29.88
2022-11-15T19:46:20.618Z,28.52
2022-11-15T19:48:47.983Z,28.33
2022-11-15T19:51:19.388Z,27.38
2022-11-15T19:53:45.990Z,27.10
2022-11-15T19:56:17.769Z,27.45
2022-11-15T19:58:45.200Z,29.23
2022-11-15T20:01:22.119Z,28.60
2022-11-15T20:03:50.888Z,28.45
2022-11-15T20:06:19.792Z,25.02
2022-11-15T20:08:47.137Z,25.58
2022-11-15T20:11:15.497Z,26.73
2022-11-15T20:13:43.040Z,27.15
2022-11-15T20:16:14.974Z,26.58
2022-11-15T20:18:41.761Z,26.55
2022-11-15T20:21:09.175Z,28.27
2022-11-15T20:23:35.816Z,30.15
2022-11-15T20:26:02.452Z,29.25
2022-11-15T20:28:29.509Z,26.35
2022-11-15T20:31:00.909Z,28.95
2022-11-15T20:33:28.249Z,26.75
2022-11-15T20:35:54.909Z,27.65
2022-11-15T20:38:21.938Z,29.83
2022-11-15T20:40:50.090Z,28.00
2022-11-15T20:43:19.218Z,27.52
2022-11-15T20:45:47.725Z,24.40
2022-11-15T20:48:15.064Z,27.80
2022-11-15T20:50:43.908Z,23.17
2022-11-15T20:53:13.002Z,24.05
2022-11-15T20:55:41.470Z,26.02
2022-11-15T20:58:09.515Z,27.50
2022-11-15T21:00:37.050Z,28.77
2022-11-15T21:03:06.953Z,26.77
2022-11-15T21:05:41.761Z,27.17
2022-11-15T21:08:09.610Z,24.02
2022-11-15T21:10:54.432Z,26.70
2022-11-15T21:13:21.762Z,25.23
2022-11-15T21:15:48.656Z,25.42
2022-11-15T21:18:15.747Z,25.75
2022-11-15T21:20:42.572Z,26.58
2022-11-15T21:23:09.623Z,25.02
2022-11-15T21:25:36.287Z,26.50
2022-11-15T21:28:03.216Z,24.13
2022-11-15T21:30:30.552Z,27.90
2022-11-15T21:32:57.210Z,26.95
2022-11-15T21:35:24.291Z,28.48
2022-11-15T21:37:56.538Z,27.67
2022-11-15T21:40:24.584Z,26.20
2022-11-15T21:42:51.227Z,26.92
2022-11-15T21:45:17.846Z,26.10
2022-11-15T21:47:46.388Z,22.70
2022-11-15T21:50:13.948Z,25.38
2022-11-15T21:52:41.072Z,25.35
2022-11-15T21:55:08.527Z,23.90
2022-11-15T21:57:35.181Z,24.42
2022-11-15T22:00:20.467Z,23.83
2022-11-15T22:02:47.077Z,23.38
2022-11-15T22:05:13.739Z,22.75
2022-11-15T22:07:40.650Z,24.38
2022-11-15T22:10:07.599Z,25.52
2022-11-15T22:12:34.209Z,22.25
2022-11-15T22:15:00.851Z,23.98
2022-11-15T22:17:47.501Z,22.45
2022-11-15T22:20:43.989Z,23.55
2022-11-15T22:23:02.286Z,24.08
2022-11-15T22:25:30.123Z,22.38
2022-11-15T22:27:56.809Z,24.13
2022-11-15T22:30:24.281Z,23.48
2022-11-15T22:32:51.000Z,23.42
2022-11-15T22:35:17.865Z,23.65
2022-11-15T22:37:44.552Z,22.15
2022-11-15T22:40:11.517Z,21.77
2022-11-15T22:42:38.198Z,22.00
2022-11-15T22:45:05.257Z,20.17
2022-11-15T22:47:31.959Z,20.98
2022-11-15T22:49:58.623Z,19.58
2022-11-15T22:52:25.374Z,19.08
2022-11-15T22:54:52.112Z,18.67
2022-11-15T22:57:18.813Z,17.55
2022-11-15T22:59:45.973Z,18.15
2022-11-15T23:02:12.646Z,17.95
2022-11-15T23:04:39.432Z,17.85
2022-11-15T23:07:06.175Z,18.98
2022-11-15T23:09:32.968Z,18.30
2022-11-15T23:12:18.235Z,18.17
2022-11-15T23:17:11.474Z,18.25
2022-11-15T23:19:38.234Z,17.85
2022-11-15T23:22:23.634Z,17.38
2022-11-15T23:24:51.838Z,17.08
2022-11-15T23:27:20.083Z,17.48
2022-11-15T23:30:06.307Z,16.98
2022-11-15T23:32:51.752Z,17.50
2022-11-15T23:35:18.434Z,17.65
2022-11-15T23:37:45.421Z,18.30
2022-11-15T23:40:12.904Z,17.60
2022-11-15T23:42:39.688Z,17.95
2022-11-15T23:45:07.081Z,18.30
2022-11-15T23:47:33.909Z,16.58
2022-11-15T23:50:00.609Z,17.10
2022-11-15T23:52:27.291Z,16.90
2022-11-15T23:54:54.004Z,15.80
2022-11-15T23:57:20.751Z,15.68
2022-11-15T23:59:47.779Z,15.32
